createdAt,value
2018-09-08T00:01:30.449Z,57.92
2018-09-08T00:04:01.458Z,57.39
2018-09-08T00:06:36.414Z,57.09
2018-09-08T00:09:10.404Z,57.63
2018-09-08T00:11:41.385Z,57.91
2018-09-08T00:14:12.409Z,57.64
2018-09-08T00:16:48.320Z,57.42
2018-09-08T00:19:24.324Z,57.18
2018-09-08T00:22:00.356Z,57.32
2018-09-08T00:24:36.488Z,57.28
2018-09-08T00:27:06.316Z,56.98
2018-09-08T00:29:41.249Z,57.31
2018-09-08T00:32:14.512Z,56.29
2018-09-08T00:34:45.469Z,56.28
2018-09-08T00:37:16.472Z,55.71
2018-09-08T00:39:51.434Z,55.35
2018-09-08T00:42:22.377Z,55.30
2018-09-08T00:44:53.380Z,54.95
2018-09-08T00:47:24.373Z,55.58
2018-09-08T00:49:55.384Z,55.84
2018-09-08T00:52:26.364Z,56.87
2018-09-08T00:54:57.373Z,56.92
2018-09-08T00:57:28.471Z,56.58
2018-09-08T00:59:59.412Z,56.72
2018-09-08T01:02:30.431Z,56.38
2018-09-08T01:05:01.424Z,56.62
2018-09-08T01:07:32.749Z,56.67
2018-09-08T01:10:04.234Z,56.23
2018-09-08T01:12:35.356Z,56.43
2018-09-08T01:15:06.374Z,55.68
2018-09-08T01:17:37.445Z,55.80
2018-09-08T01:20:08.497Z,56.04
2018-09-08T01:22:39.468Z,55.23
2018-09-08T01:25:10.441Z,54.88
2018-09-08T01:27:41.443Z,55.28
2018-09-08T01:30:12.457Z,54.84
2018-09-08T01:32:43.636Z,54.69
2018-09-08T01:37:54.581Z,56.11
2018-09-08T01:40:25.489Z,55.63
2018-09-08T01:42:56.420Z,55.59
2018-09-08T01:45:27.429Z,56.12
2018-09-08T01:47:58.372Z,56.24
2018-09-08T01:50:29.389Z,55.86
2018-09-08T01:53:00.385Z,56.41
2018-09-08T01:55:31.457Z,56.44
2018-09-08T01:58:02.429Z,55.95
2018-09-08T02:00:33.489Z,55.75
2018-09-08T02:03:04.461Z,56.19
2018-09-08T02:05:35.437Z,57.13
2018-09-08T02:08:06.478Z,56.81
2018-09-08T02:10:37.385Z,56.51
2018-09-08T02:13:08.392Z,57.01
2018-09-08T02:15:39.394Z,56.56
2018-09-08T02:18:10.405Z,56.39
2018-09-08T02:20:41.421Z,56.59
2018-09-08T02:23:12.376Z,56.48
2018-09-08T02:25:43.381Z,56.47
2018-09-08T02:28:14.385Z,56.00
2018-09-08T02:30:45.385Z,56.62
2018-09-08T02:33:16.437Z,56.29
2018-09-08T02:35:48.448Z,56.92
2018-09-08T02:38:19.381Z,56.42
2018-09-08T02:40:50.388Z,56.95
2018-09-08T02:43:21.378Z,56.94
2018-09-08T02:45:52.389Z,57.36
2018-09-08T02:48:23.380Z,57.28
2018-09-08T02:50:52.514Z,56.98
2018-09-08T02:53:21.285Z,57.69
2018-09-08T02:55:49.817Z,58.03
2018-09-08T02:58:18.463Z,58.57
2018-09-08T03:00:47.279Z,58.40
2018-09-08T03:03:15.837Z,58.43
2018-09-08T03:05:44.463Z,58.19
2018-09-08T03:08:13.295Z,58.39
2018-09-08T03:10:41.810Z,59.05
2018-09-08T03:13:10.453Z,58.88
2018-09-08T03:15:39.284Z,58.95
2018-09-08T03:18:07.820Z,59.49
2018-09-08T03:20:36.441Z,59.66
2018-09-08T03:23:05.339Z,59.79
2018-09-08T03:25:33.997Z,60.29
2018-09-08T03:28:02.645Z,59.87
2018-09-08T03:30:31.374Z,60.20
2018-09-08T03:33:00.287Z,59.98
2018-09-08T03:35:28.818Z,60.17
2018-09-08T03:37:57.473Z,60.97
2018-09-08T03:40:26.289Z,60.96
2018-09-08T03:42:54.841Z,60.56
2018-09-08T03:45:23.477Z,60.35
2018-09-08T03:47:52.289Z,61.09
2018-09-08T03:50:20.829Z,61.27
2018-09-08T03:52:49.470Z,61.70
2018-09-08T03:55:18.293Z,61.24
2018-09-08T03:57:46.824Z,61.79
2018-09-08T04:00:16.449Z,62.31
2018-09-08T04:02:47.833Z,62.72
2018-09-08T04:05:18.551Z,62.43
2018-09-08T04:07:49.474Z,62.80
2018-09-08T04:10:20.449Z,63.01
2018-09-08T04:12:51.428Z,63.26
2018-09-08T04:15:22.437Z,62.51
2018-09-08T04:17:53.459Z,62.65
2018-09-08T04:20:24.430Z,62.08
2018-09-08T04:22:55.440Z,62.96
2018-09-08T04:25:26.460Z,62.98
2018-09-08T04:27:57.454Z,62.62
2018-09-08T04:30:28.461Z,63.60
2018-09-08T04:32:59.410Z,63.53
2018-09-08T04:35:30.386Z,63.34
2018-09-08T04:38:01.386Z,62.96
2018-09-08T04:40:32.430Z,62.71
2018-09-08T04:43:03.426Z,63.29
2018-09-08T04:45:34.393Z,62.81
2018-09-08T04:48:05.413Z,62.95
2018-09-08T04:50:36.405Z,63.47
2018-09-08T04:53:07.481Z,64.43
2018-09-08T04:55:38.717Z,65.46
2018-09-08T04:58:09.553Z,66.57
2018-09-08T05:00:40.451Z,66.85
2018-09-08T05:03:11.438Z,67.63
2018-09-08T05:05:42.467Z,67.65
2018-09-08T05:08:13.428Z,67.50
2018-09-08T05:10:44.401Z,67.89
2018-09-08T05:13:15.431Z,68.46
2018-09-08T05:15:46.434Z,68.36
2018-09-08T05:18:17.405Z,68.04
2018-09-08T05:20:48.385Z,67.78
2018-09-08T05:23:19.410Z,68.93
2018-09-08T05:25:50.570Z,67.97
2018-09-08T05:28:21.480Z,67.71
2018-09-08T05:30:52.946Z,67.21
2018-09-08T05:33:24.017Z,67.87
2018-09-08T05:35:56.023Z,67.06
2018-09-08T05:38:27.262Z,67.44
2018-09-08T05:40:58.353Z,68.14
2018-09-08T05:43:29.364Z,67.64
2018-09-08T05:46:00.353Z,67.00
2018-09-08T05:48:31.356Z,66.74
2018-09-08T05:51:02.345Z,66.76
2018-09-08T05:53:33.357Z,66.87
2018-09-08T05:56:04.559Z,66.46
2018-09-08T05:58:35.540Z,65.78
2018-09-08T06:01:06.841Z,66.13
2018-09-08T06:03:37.901Z,66.04
2018-09-08T06:06:08.672Z,65.82
2018-09-08T06:08:39.556Z,64.91
2018-09-08T06:11:10.471Z,64.31
2018-09-08T06:13:41.475Z,63.72
2018-09-08T06:16:12.445Z,64.48
2018-09-08T06:18:43.468Z,64.01
2018-09-08T06:21:14.528Z,63.40
2018-09-08T06:23:45.453Z,63.08
2018-09-08T06:26:16.424Z,62.49
2018-09-08T06:28:47.489Z,62.55
2018-09-08T06:31:18.445Z,61.73
2018-09-08T06:33:49.482Z,61.27
2018-09-08T06:36:20.370Z,61.24
2018-09-08T06:38:51.382Z,61.17
2018-09-08T06:41:22.430Z,59.84
2018-09-08T06:43:53.392Z,58.76
2018-09-08T06:46:24.437Z,58.82
2018-09-08T06:48:55.395Z,57.93
2018-09-08T06:51:26.420Z,57.49
2018-09-08T06:53:57.420Z,56.97
2018-09-08T06:56:28.421Z,56.69
2018-09-08T06:58:59.445Z,56.35
2018-09-08T07:01:30.393Z,56.24
2018-09-08T07:04:01.416Z,55.55
2018-09-08T07:06:32.433Z,55.17
2018-09-08T07:09:03.534Z,57.28
2018-09-08T07:11:34.468Z,58.18
2018-09-08T07:14:05.494Z,58.14
2018-09-08T07:16:36.497Z,58.22
2018-09-08T07:19:07.485Z,58.58
2018-09-08T07:21:38.513Z,57.68
2018-09-08T07:24:09.495Z,56.44
2018-09-08T07:26:40.470Z,56.14
2018-09-08T07:29:11.457Z,56.62
2018-09-08T07:31:42.475Z,55.49
2018-09-08T07:34:13.453Z,55.08
2018-09-08T07:36:44.521Z,54.68
2018-09-08T07:39:15.506Z,53.92
2018-09-08T07:41:46.461Z,54.31
2018-09-08T07:44:17.402Z,53.17
2018-09-08T07:46:48.457Z,53.43
2018-09-08T07:49:19.492Z,53.35
2018-09-08T07:51:50.585Z,52.38
2018-09-08T07:54:21.525Z,51.68
2018-09-08T07:56:52.433Z,50.78
2018-09-08T07:59:23.589Z,50.01
2018-09-08T08:01:54.485Z,49.87
2018-09-08T08:04:25.531Z,50.55
2018-09-08T08:06:56.436Z,48.52
2018-09-08T08:09:27.469Z,49.06
2018-09-08T08:11:58.585Z,46.74
2018-09-08T08:14:29.559Z,47.74
2018-09-08T08:17:00.485Z,48.22
2018-09-08T08:19:31.472Z,48.09
2018-09-08T08:22:02.529Z,47.09
2018-09-08T08:24:33.431Z,46.13
2018-09-08T08:27:04.416Z,45.46
2018-09-08T08:32:26.420Z,43.30
2018-09-08T08:34:57.432Z,42.78
2018-09-08T08:37:28.457Z,40.93
2018-09-08T08:39:59.433Z,41.67
2018-09-08T08:42:30.414Z,41.69
2018-09-08T08:45:01.409Z,39.84
2018-09-08T08:47:32.447Z,38.18
2018-09-08T08:50:26.483Z,38.42
2018-09-08T08:53:20.505Z,37.25
2018-09-08T08:55:51.502Z,35.80
2018-09-08T08:58:22.446Z,35.76
2018-09-08T09:00:53.421Z,34.73
2018-09-08T09:03:24.472Z,33.72
2018-09-08T09:05:55.474Z,34.71
2018-09-08T09:08:26.764Z,35.10
2018-09-08T09:10:57.468Z,34.91
2018-09-08T09:13:28.694Z,33.38
2018-09-08T09:15:59.481Z,34.58
2018-09-08T09:18:53.822Z,34.41
2018-09-08T09:22:48.296Z,33.12
2018-09-08T09:25:19.341Z,32.72
2018-09-08T09:27:51.413Z,33.33
2018-09-08T09:30:22.766Z,31.72
2018-09-08T09:32:53.526Z,32.58
2018-09-08T09:35:24.457Z,32.97
2018-09-08T09:37:55.457Z,34.40
2018-09-08T09:40:26.468Z,33.89
2018-09-08T09:42:57.429Z,34.66
2018-09-08T09:45:28.470Z,35.39
2018-09-08T09:47:59.459Z,35.62
2018-09-08T09:50:30.470Z,35.35
2018-09-08T09:53:01.512Z,34.97
2018-09-08T09:55:32.441Z,36.00
2018-09-08T09:58:03.641Z,36.75
2018-09-08T10:00:39.672Z,36.76
2018-09-08T10:03:10.988Z,36.54
2018-09-08T10:05:42.194Z,35.78
2018-09-08T10:08:13.290Z,36.04
2018-09-08T10:10:44.345Z,36.32
2018-09-08T10:13:15.366Z,35.90
2018-09-08T10:15:46.347Z,36.31
2018-09-08T10:18:17.364Z,36.72
2018-09-08T10:20:48.453Z,36.25
2018-09-08T10:23:19.556Z,36.75
2018-09-08T10:25:57.289Z,36.17
2018-09-08T10:28:28.953Z,36.59
2018-09-08T10:30:59.485Z,37.80
2018-09-08T10:33:30.498Z,37.00
2018-09-08T10:36:01.502Z,38.38
2018-09-08T10:38:32.483Z,36.84
2018-09-08T10:41:03.542Z,36.25
2018-09-08T10:43:34.472Z,36.61
2018-09-08T10:46:05.452Z,35.72
2018-09-08T10:48:36.478Z,36.57
2018-09-08T10:52:23.812Z,35.21
2018-09-08T10:54:54.565Z,36.29
2018-09-08T10:57:25.491Z,35.41
2018-09-08T10:59:56.491Z,35.72
2018-09-08T11:02:27.670Z,34.36
2018-09-08T11:04:58.521Z,35.61
2018-09-08T11:07:29.569Z,33.83
2018-09-08T11:10:00.614Z,31.92
2018-09-08T11:12:32.025Z,31.18
2018-09-08T11:15:03.199Z,31.45
2018-09-08T11:17:34.289Z,30.42
2018-09-08T11:20:05.429Z,30.28
2018-09-08T11:22:36.448Z,31.98
2018-09-08T11:25:07.533Z,29.66
2018-09-08T11:27:38.430Z,31.43
2018-09-08T11:30:09.819Z,30.58
2018-09-08T11:32:40.569Z,30.76
2018-09-08T11:35:11.467Z,30.44
2018-09-08T11:37:42.479Z,29.94
2018-09-08T11:40:13.628Z,29.64
2018-09-08T11:42:44.493Z,30.04
2018-09-08T11:45:15.413Z,28.99
2018-09-08T11:47:46.440Z,28.62
2018-09-08T11:50:17.437Z,28.58
2018-09-08T11:52:48.480Z,26.56
2018-09-08T11:55:19.417Z,26.39
2018-09-08T11:57:50.437Z,26.53
2018-09-08T12:00:21.409Z,25.16
2018-09-08T12:02:52.447Z,25.22
2018-09-08T12:05:23.405Z,25.77
2018-09-08T12:07:54.480Z,26.39
2018-09-08T12:10:25.386Z,25.82
2018-09-08T12:12:59.473Z,25.25
2018-09-08T12:15:30.430Z,25.50
2018-09-08T12:18:01.437Z,25.46
2018-09-08T12:20:32.384Z,24.57
2018-09-08T12:23:03.458Z,24.88
2018-09-08T12:25:34.447Z,24.38
2018-09-08T12:28:05.446Z,23.48
2018-09-08T12:30:37.762Z,24.69
2018-09-08T12:33:08.601Z,24.88
2018-09-08T12:35:39.729Z,23.63
2018-09-08T12:38:10.561Z,23.96
2018-09-08T12:40:41.490Z,24.67
2018-09-08T12:43:12.465Z,25.05
2018-09-08T12:45:43.451Z,24.84
2018-09-08T12:48:14.458Z,24.07
2018-09-08T12:50:45.495Z,25.02
2018-09-08T12:53:16.507Z,25.46
2018-09-08T12:55:47.446Z,25.10
2018-09-08T12:58:18.417Z,25.21
2018-09-08T13:00:49.458Z,25.27
2018-09-08T13:03:20.530Z,27.57
2018-09-08T13:05:51.470Z,26.12
2018-09-08T13:08:22.507Z,25.94
2018-09-08T13:10:53.526Z,25.75
2018-09-08T13:13:24.467Z,24.49
2018-09-08T13:15:55.435Z,26.39
2018-09-08T13:18:26.497Z,25.79
2018-09-08T13:20:57.444Z,25.43
2018-09-08T13:23:28.469Z,25.63
2018-09-08T13:25:59.470Z,25.45
2018-09-08T13:28:30.491Z,26.78
2018-09-08T13:31:01.505Z,25.96
2018-09-08T13:33:32.474Z,25.69
2018-09-08T13:36:03.461Z,27.68
2018-09-08T13:38:34.505Z,25.95
2018-09-08T13:41:05.477Z,25.33
2018-09-08T13:43:36.485Z,25.90
2018-09-08T13:46:07.477Z,25.18
2018-09-08T13:48:38.523Z,25.75
2018-09-08T13:51:09.491Z,25.13
2018-09-08T13:53:40.498Z,25.36
2018-09-08T13:56:11.457Z,25.97
2018-09-08T13:58:42.491Z,27.06
2018-09-08T14:01:13.455Z,25.90
2018-09-08T14:03:44.495Z,26.14
2018-09-08T14:06:15.490Z,26.81
2018-09-08T14:08:46.477Z,25.34
2018-09-08T14:11:17.480Z,27.47
2018-09-08T14:13:48.493Z,25.60
2018-09-08T14:16:19.420Z,26.23
2018-09-08T14:18:50.414Z,26.73
2018-09-08T14:21:21.426Z,26.12
2018-09-08T14:23:52.448Z,26.13
2018-09-08T14:26:23.401Z,25.77
2018-09-08T14:28:54.413Z,27.67
2018-09-08T14:31:25.398Z,26.34
2018-09-08T14:33:56.425Z,28.59
2018-09-08T14:36:27.425Z,27.85
2018-09-08T14:38:58.463Z,27.42
2018-09-08T14:41:29.498Z,29.17
2018-09-08T14:44:00.446Z,29.93
2018-09-08T14:46:31.458Z,30.75
2018-09-08T14:49:02.460Z,28.40
2018-09-08T14:51:33.422Z,28.85
2018-09-08T14:54:04.423Z,27.95
2018-09-08T14:56:35.453Z,28.17
2018-09-08T14:59:06.477Z,29.77
2018-09-08T15:01:37.537Z,28.16
2018-09-08T15:04:08.486Z,28.82
2018-09-08T15:06:39.431Z,28.74
2018-09-08T15:09:10.462Z,29.60
2018-09-08T15:11:41.441Z,29.78
2018-09-08T15:14:12.400Z,31.14
2018-09-08T15:16:43.443Z,31.31
2018-09-08T15:19:14.501Z,31.64
2018-09-08T15:21:45.466Z,30.59
2018-09-08T15:24:16.455Z,32.71
2018-09-08T15:26:47.437Z,32.70
2018-09-08T15:29:18.421Z,32.69
2018-09-08T15:31:49.446Z,32.57
2018-09-08T15:34:20.414Z,32.92
2018-09-08T15:36:51.449Z,32.79
2018-09-08T15:39:22.449Z,32.15
2018-09-08T15:41:53.401Z,31.97
2018-09-08T15:44:24.454Z,33.14
2018-09-08T15:46:55.438Z,32.90
2018-09-08T15:49:26.437Z,33.00
2018-09-08T15:51:57.481Z,33.00
2018-09-08T15:54:28.483Z,32.54
2018-09-08T15:56:59.487Z,33.42
2018-09-08T15:59:30.501Z,33.12
2018-09-08T16:02:01.463Z,33.00
2018-09-08T16:04:32.505Z,33.38
2018-09-08T16:07:03.450Z,33.59
2018-09-08T16:09:34.408Z,33.06
2018-09-08T16:12:05.433Z,32.09
2018-09-08T16:14:36.454Z,32.52
2018-09-08T16:17:07.453Z,32.72
2018-09-08T16:19:38.465Z,33.46
2018-09-08T16:22:09.461Z,33.28
2018-09-08T16:24:40.429Z,33.26
2018-09-08T16:27:11.488Z,32.76
2018-09-08T16:29:42.531Z,33.40
2018-09-08T16:32:13.472Z,32.53
2018-09-08T16:34:44.540Z,33.95
2018-09-08T16:37:15.569Z,33.64
2018-09-08T16:39:46.505Z,33.28
2018-09-08T16:42:17.586Z,33.47
2018-09-08T16:44:48.602Z,33.13
2018-09-08T16:47:19.485Z,34.11
2018-09-08T16:49:50.493Z,33.56
2018-09-08T16:52:21.465Z,33.22
2018-09-08T16:54:52.503Z,33.24
2018-09-08T16:57:23.433Z,33.68
2018-09-08T16:59:54.482Z,34.29
2018-09-08T17:02:25.409Z,34.43
2018-09-08T17:04:56.483Z,36.54
2018-09-08T17:07:27.500Z,34.86
2018-09-08T17:09:58.513Z,35.17
2018-09-08T17:12:29.465Z,34.20
2018-09-08T17:15:00.521Z,34.68
2018-09-08T17:17:31.485Z,34.48
2018-09-08T17:20:02.721Z,34.07
2018-09-08T17:22:33.650Z,34.16
2018-09-08T17:25:04.505Z,35.61
2018-09-08T17:27:35.585Z,35.14
2018-09-08T17:30:07.287Z,35.31
2018-09-08T17:32:38.390Z,34.65
2018-09-08T17:35:09.570Z,35.70
2018-09-08T17:37:40.962Z,35.42
2018-09-08T17:40:12.213Z,35.61
2018-09-08T17:42:43.537Z,34.37
2018-09-08T17:45:14.547Z,35.04
2018-09-08T17:47:45.486Z,35.33
2018-09-08T17:50:16.488Z,35.89
2018-09-08T17:52:47.488Z,35.54
2018-09-08T17:55:18.550Z,36.04
2018-09-08T17:57:49.548Z,35.10
2018-09-08T18:00:20.467Z,36.02
2018-09-08T18:02:51.461Z,35.46
2018-09-08T18:05:22.527Z,36.58
2018-09-08T18:07:53.474Z,37.59
2018-09-08T18:10:24.505Z,36.09
2018-09-08T18:12:55.514Z,37.10
2018-09-08T18:15:26.493Z,36.62
2018-09-08T18:17:57.485Z,36.35
2018-09-08T18:20:28.522Z,35.95
2018-09-08T18:22:59.527Z,37.01
2018-09-08T18:25:30.605Z,36.31
2018-09-08T18:28:01.524Z,37.49
2018-09-08T18:30:32.503Z,36.95
2018-09-08T18:33:04.420Z,36.43
2018-09-08T18:35:35.486Z,37.66
2018-09-08T18:38:06.471Z,37.59
2018-09-08T18:40:37.510Z,37.68
2018-09-08T18:43:08.539Z,38.13
2018-09-08T18:45:39.466Z,37.79
2018-09-08T18:48:10.543Z,38.63
2018-09-08T18:50:41.519Z,37.88
2018-09-08T18:53:12.481Z,37.64
2018-09-08T18:55:43.639Z,37.67
2018-09-08T18:58:14.460Z,39.86
2018-09-08T19:00:45.434Z,39.40
2018-09-08T19:03:16.464Z,38.81
2018-09-08T19:05:47.481Z,39.00
2018-09-08T19:08:18.569Z,39.26
2018-09-08T19:10:49.474Z,38.70
2018-09-08T19:13:20.467Z,39.64
2018-09-08T19:15:51.469Z,39.74
2018-09-08T19:18:22.470Z,39.97
2018-09-08T19:20:53.485Z,39.70
2018-09-08T19:23:24.470Z,39.84
2018-09-08T19:25:55.577Z,40.02
2018-09-08T19:28:26.466Z,40.01
2018-09-08T19:30:57.442Z,40.22
2018-09-08T19:33:28.456Z,40.82
2018-09-08T19:35:59.456Z,41.06
2018-09-08T19:38:30.465Z,39.85
2018-09-08T19:41:01.453Z,40.63
2018-09-08T19:43:32.441Z,41.17
2018-09-08T19:46:07.387Z,41.07
2018-09-08T19:48:38.462Z,41.72
2018-09-08T19:51:09.447Z,41.03
2018-09-08T19:53:45.709Z,41.91
2018-09-08T19:56:16.569Z,41.79
2018-09-08T19:58:52.734Z,42.27
2018-09-08T20:01:23.576Z,41.64
2018-09-08T20:03:55.453Z,41.75
2018-09-08T20:06:26.603Z,41.86
2018-09-08T20:08:57.482Z,42.32
2018-09-08T20:11:28.457Z,42.93
2018-09-08T20:13:59.500Z,42.19
2018-09-08T20:16:30.450Z,42.21
2018-09-08T20:19:01.456Z,42.82
2018-09-08T20:21:32.541Z,43.39
2018-09-08T20:24:03.491Z,43.33
2018-09-08T20:26:34.495Z,42.62
2018-09-08T20:29:05.473Z,43.40
2018-09-08T20:31:36.465Z,43.29
2018-09-08T20:34:07.490Z,42.82
2018-09-08T20:36:38.510Z,43.17
2018-09-08T20:39:10.353Z,43.54
2018-09-08T20:41:41.674Z,44.27
2018-09-08T20:44:12.509Z,44.09
2018-09-08T20:46:43.567Z,44.47
2018-09-08T20:49:14.480Z,44.59
2018-09-08T20:51:45.478Z,45.17
2018-09-08T20:54:16.470Z,44.70
2018-09-08T20:56:47.517Z,45.21
2018-09-08T20:59:18.615Z,45.19
2018-09-08T21:01:49.474Z,45.13
2018-09-08T21:04:20.456Z,45.20
2018-09-08T21:06:52.010Z,45.58
2018-09-08T21:09:23.281Z,45.33
2018-09-08T21:11:54.348Z,45.72
2018-09-08T21:14:25.337Z,46.15
2018-09-08T21:16:56.367Z,45.83
2018-09-08T21:19:27.462Z,45.89
2018-09-08T21:21:58.397Z,46.38
2018-09-08T21:24:29.520Z,46.58
2018-09-08T21:27:00.508Z,46.21
2018-09-08T21:29:31.702Z,47.43
2018-09-08T21:32:02.529Z,46.89
2018-09-08T21:34:33.441Z,47.29
2018-09-08T21:37:04.405Z,46.72
2018-09-08T21:39:35.411Z,46.82
2018-09-08T21:42:06.685Z,47.47
2018-09-08T21:44:37.465Z,47.77
2018-09-08T21:47:08.506Z,47.14
2018-09-08T21:49:39.650Z,47.81
2018-09-08T21:52:10.483Z,47.92
2018-09-08T21:54:41.416Z,48.13
2018-09-08T21:57:12.405Z,48.02
2018-09-08T21:59:43.418Z,48.18
2018-09-08T22:02:14.433Z,48.91
2018-09-08T22:04:45.381Z,49.02
2018-09-08T22:07:16.414Z,48.74
2018-09-08T22:09:47.549Z,48.85
2018-09-08T22:12:18.455Z,49.11
2018-09-08T22:14:49.453Z,48.73
2018-09-08T22:17:20.480Z,48.79
2018-09-08T22:19:51.448Z,48.74
2018-09-08T22:22:22.448Z,49.65
2018-09-08T22:24:53.424Z,49.77
2018-09-08T22:27:24.490Z,49.33
2018-09-08T22:29:55.447Z,49.72
2018-09-08T22:32:26.477Z,49.45
2018-09-08T22:34:57.449Z,50.56
2018-09-08T22:37:28.443Z,49.72
2018-09-08T22:39:59.440Z,50.38
2018-09-08T22:42:30.403Z,51.57
2018-09-08T22:45:01.437Z,50.51
2018-09-08T22:47:32.385Z,50.69
2018-09-08T22:50:03.450Z,51.70
2018-09-08T22:52:34.439Z,51.20
2018-09-08T22:55:05.429Z,51.67
2018-09-08T22:57:36.484Z,51.58
2018-09-08T23:00:07.472Z,51.49
2018-09-08T23:02:38.468Z,51.66
2018-09-08T23:05:09.424Z,52.07
2018-09-08T23:07:40.450Z,51.98
2018-09-08T23:10:11.503Z,52.29
2018-09-08T23:12:42.460Z,52.60
2018-09-08T23:15:13.469Z,52.45
2018-09-08T23:17:44.473Z,52.38
2018-09-08T23:20:15.449Z,52.42
2018-09-08T23:22:46.433Z,52.40
2018-09-08T23:25:17.445Z,52.74
2018-09-08T23:27:48.450Z,53.30
2018-09-08T23:30:19.485Z,52.90
2018-09-08T23:32:50.456Z,53.07
2018-09-08T23:35:21.516Z,53.46
2018-09-08T23:37:53.293Z,53.92
2018-09-08T23:40:24.349Z,53.74
2018-09-08T23:42:55.361Z,53.96
2018-09-08T23:45:26.370Z,54.25
2018-09-08T23:47:57.485Z,54.00
2018-09-08T23:50:28.516Z,54.45
2018-09-08T23:52:59.470Z,54.21
2018-09-08T23:55:30.504Z,54.62
2018-09-08T23:58:01.500Z,55.24
